ミラノ・マルペンサ国際空港の過去48時間の天気

ミラノ・マルペンサ国際空港 (Milano / Malpensa)

現在時刻: 8/6 23:07 CEST (8/6 21:07 UTC) 以下の時間は現地時間です。

過去48時間のMETAR気象情報
時間 風向 風速(m/s) 視程 気温(℃) 湿度(%) 気圧(hPa) 天気現象
6 22:50 北東 1 10km以上 21 69 1019
6 22:20 北北東 1 10km以上 23 61 1019
6 21:50 北北東 2 10km以上 23 61 1018
6 21:20 西北西 2 10km以上 27 42 1018
6 20:50 西 3 10km以上 27 42 1018
6 20:20 西南西 3 10km以上 28 42 1017
6 19:50 西南西 3 10km以上 28 40 1017
6 19:20 南西 4 10km以上 29 37 1017
6 18:50 西南西 4 10km以上 29 37 1017
6 18:20 西南西 4 10km以上 29 40 1017
6 17:50 西南西 5 10km以上 30 35 1017
6 17:20 西南西 4 10km以上 30 38 1017
6 16:50 南南西 4 10km以上 30 35 1017
6 16:20 南南西 3 10km以上 30 38 1017
6 15:50 3 10km以上 30 33 1017
6 15:20 南西 4 10km以上 30 31 1017
6 14:50 西南西 4 10km以上 30 33 1017
6 14:20 西南西 4 10km以上 30 35 1017
6 13:50 3 10km以上 29 37 1017
6 13:20 南南西 3 10km以上 29 35 1018
6 12:50 不定 2 10km以上 28 40 1018
6 12:20 西 3 10km以上 28 35 1018
6 11:50 3 10km以上 28 37 1018
6 11:20 不定 2 10km以上 26 45 1018
6 10:50 2 10km以上 26 45 1018
6 10:20 不定 2 10km以上 25 47 1018
6 09:50 2 10km以上 24 54 1018
6 09:20 3 10km以上 23 57 1018
6 08:50 3 10km以上 22 60 1017
6 08:20 北北東 3 10km以上 21 64 1017
6 07:50 3 10km以上 19 73 1017
6 07:20 北北東 2 10km以上 17 83 1017
6 06:50 北北東 3 10km以上 17 83 1017
6 06:20 3 10km以上 16 82 1016
6 05:50 3 10km以上 16 82 1016
6 05:20 北北東 3 10km以上 17 77 1016
6 04:50 3 10km以上 16 82 1016
6 04:20 3 10km以上 16 82 1016
6 03:50 3 10km以上 17 77 1016
6 03:20 北東 2 10km以上 16 82 1016
6 02:50 北北東 3 10km以上 16 82 1016
6 02:20 2 10km以上 16 82 1016
6 01:50 北北東 3 10km以上 17 77 1016
6 01:20 北北東 2 10km以上 17 77 1016
6 00:50 北北東 2 10km以上 18 77 1016
6 00:20 3 10km以上 17 83 1016
5 23:20 3 10km以上 18 73 1016
5 22:50 2 10km以上 19 73 1015
5 22:20 不定 1 10km以上 20 64 1015
5 21:50 不定 1 10km以上 22 57 1015
5 21:20 1 10km以上 23 53 1014
5 20:50 南南西 2 10km以上 24 47 1014
5 20:20 3 10km以上 26 39 1014
5 19:50 3 10km以上 26 39 1014
5 19:20 南西 4 10km以上 27 34 1013
5 18:50 南南西 4 10km以上 27 34 1013
5 18:20 3 10km以上 27 34 1013
5 17:50 南南東 3 10km以上 28 32 1013
5 17:20 南南西 4 10km以上 28 32 1013
5 16:50 3 10km以上 28 32 1013
5 16:20 3 10km以上 28 30 1013
5 15:50 4 10km以上 28 30 1013
5 15:20 4 10km以上 28 28 1013
5 14:50 南南西 5 10km以上 28 28 1013
5 14:20 南西 4 10km以上 28 28 1013
5 13:50 南南西 4 10km以上 27 30 1013
5 13:20 西南西 4 10km以上 27 34 1014
5 12:50 3 10km以上 27 37 1014
5 12:20 不定 2 10km以上 27 32 1014
5 11:50 西 3 10km以上 26 34 1014
5 11:20 不定 2 10km以上 26 30 1014
5 10:50 不定 1 10km以上 26 30 1014
5 10:20 不定 2 10km以上 26 32 1014
5 09:50 不定 1 10km以上 25 36 1014
5 09:20 不定 1 10km以上 23 41 1013
5 08:50 3 10km以上 21 43 1013
5 08:20 3 10km以上 20 49 1013
5 07:50 4 10km以上 19 60 1013
5 07:20 3 10km以上 16 68 1013
5 06:50 不定 1 10km以上 16 59 1012
5 06:20 3 10km以上 14 63 1012
5 05:50 北北東 3 10km以上 14 63 1012
5 05:20 3 10km以上 16 51 1011
5 04:50 2 10km以上 16 51 1011
5 04:20 東南東 3 10km以上 17 45 1011
5 03:50 北北東 2 10km以上 18 42 1011
5 03:20 北東 3 10km以上 17 45 1011
5 02:50 3 10km以上 17 45 1011
5 02:20 北北西 4 10km以上 19 37 1011
5 01:50 北北西 3 10km以上 19 37 1011
5 01:20 4 10km以上 19 37 1011
5 00:50 北北西 3 10km以上 20 32 1011
5 00:20 北北東 4 10km以上 20 32 1010
4 23:50 3 10km以上 21 31 1010
4 23:20 北北東 4 10km以上 21 31 1010
LIMC 062050Z 05002KT CAVOK 21/15 Q1019 NOSIG
LIMC 062020Z 03002KT CAVOK 23/15 Q1019 NOSIG
LIMC 061950Z 03003KT CAVOK 23/15 Q1018 NOSIG
LIMC 061920Z 30004KT 270V330 CAVOK 27/13 Q1018 NOSIG
LIMC 061850Z 27005KT CAVOK 27/13 Q1018 NOSIG
LIMC 061820Z 25005KT 220V290 CAVOK 28/14 Q1017 NOSIG
LIMC 061750Z 24006KT 220V280 CAVOK 28/13 Q1017 NOSIG
LIMC 061720Z 23007KT CAVOK 29/13 Q1017 NOSIG
LIMC 061650Z 24008KT CAVOK 29/13 Q1017 NOSIG
LIMC 061620Z 24008KT 210V270 CAVOK 29/14 Q1017 NOSIG
LIMC 061550Z 24009KT 200V260 CAVOK 30/13 Q1017 NOSIG
LIMC 061520Z 24008KT 200V280 CAVOK 30/14 Q1017 NOSIG
LIMC 061450Z 21007KT 150V250 CAVOK 30/13 Q1017 NOSIG
LIMC 061420Z 21006KT 140V300 CAVOK 30/14 Q1017 NOSIG
LIMC 061350Z 18006KT 120V220 CAVOK 30/12 Q1017 NOSIG
LIMC 061320Z 22007KT 160V270 CAVOK 30/11 Q1017 NOSIG
LIMC 061250Z 25007KT 200V310 CAVOK 30/12 Q1017 NOSIG
LIMC 061220Z 24007KT 180V320 CAVOK 30/13 Q1017 NOSIG
LIMC 061150Z VRB05KT CAVOK 29/13 Q1017 NOSIG
LIMC 061120Z 20005KT 140V250 CAVOK 29/12 Q1018 NOSIG
LIMC 061050Z VRB04KT CAVOK 28/13 Q1018 NOSIG
LIMC 061020Z 27006KT 230V330 CAVOK 28/11 Q1018 NOSIG
LIMC 060950Z VRB05KT CAVOK 28/12 Q1018 NOSIG
LIMC 060920Z VRB04KT CAVOK 26/13 Q1018 NOSIG
LIMC 060850Z 35003KT 270V080 CAVOK 26/13 Q1018 NOSIG
LIMC 060820Z VRB03KT CAVOK 25/13 Q1018 NOSIG
LIMC 060750Z 36003KT 310V090 CAVOK 24/14 Q1018 NOSIG
LIMC 060720Z 36005KT CAVOK 23/14 Q1018 NOSIG
LIMC 060650Z 01005KT CAVOK 22/14 Q1017 NOSIG
LIMC 060620Z 02005KT CAVOK 21/14 Q1017 NOSIG
LIMC 060550Z 01005KT CAVOK 19/14 Q1017 NOSIG
LIMC 060520Z 02004KT CAVOK 17/14 Q1017 NOSIG
LIMC 060450Z 02006KT CAVOK 17/14 Q1017 NOSIG
LIMC 060420Z 01006KT CAVOK 16/13 Q1016 NOSIG
LIMC 060350Z 01005KT CAVOK 16/13 Q1016 NOSIG
LIMC 060320Z 02006KT CAVOK 17/13 Q1016 NOSIG
LIMC 060250Z 36006KT CAVOK 16/13 Q1016 NOSIG
LIMC 060220Z 01006KT CAVOK 16/13 Q1016 NOSIG
LIMC 060150Z 01005KT CAVOK 17/13 Q1016 NOSIG
LIMC 060120Z 05003KT CAVOK 16/13 Q1016 NOSIG
LIMC 060050Z 02005KT CAVOK 16/13 Q1016 NOSIG
LIMC 060020Z 01004KT CAVOK 16/13 Q1016 NOSIG
LIMC 052350Z 02005KT CAVOK 17/13 Q1016 NOSIG
LIMC 052320Z 02004KT CAVOK 17/13 Q1016 NOSIG
LIMC 052250Z 02004KT CAVOK 18/14 Q1016 NOSIG
LIMC 052220Z 01006KT CAVOK 17/14 Q1016 NOSIG
LIMC 052120Z 01005KT CAVOK 18/13 Q1016 NOSIG
LIMC 052050Z 01004KT CAVOK 19/14 Q1015 NOSIG
LIMC 052020Z VRB01KT CAVOK 20/13 Q1015 NOSIG
LIMC 051950Z VRB01KT CAVOK 22/13 Q1015 NOSIG
LIMC 051920Z 18002KT CAVOK 23/13 Q1014 NOSIG
LIMC 051850Z 20004KT CAVOK 24/12 Q1014 NOSIG
LIMC 051820Z 19006KT CAVOK 26/11 Q1014 NOSIG
LIMC 051750Z 19006KT CAVOK 26/11 Q1014 NOSIG
LIMC 051720Z 22008KT CAVOK 27/10 Q1013 NOSIG
LIMC 051650Z 20007KT CAVOK 27/10 Q1013 NOSIG
LIMC 051620Z 18005KT 130V230 CAVOK 27/10 Q1013 NOSIG
LIMC 051550Z 16005KT 080V220 CAVOK 28/10 Q1013 NOSIG
LIMC 051520Z 20007KT 140V240 CAVOK 28/10 Q1013 NOSIG
LIMC 051450Z 17005KT 120V240 CAVOK 28/10 Q1013 NOSIG
LIMC 051420Z VRB06KT CAVOK 28/09 Q1013 NOSIG
LIMC 051350Z 18008G20KT 120V240 CAVOK 28/09 Q1013 NOSIG
LIMC 051320Z 19007KT 110V250 CAVOK 28/08 Q1013 NOSIG
LIMC 051250Z 21009KT 170V250 CAVOK 28/08 Q1013 NOSIG
LIMC 051220Z 23008KT 200V280 CAVOK 28/08 Q1013 NOSIG
LIMC 051150Z 20008KT 150V240 CAVOK 27/08 Q1013 NOSIG
LIMC 051120Z 24007KT 150V290 CAVOK 27/10 Q1014 NOSIG
LIMC 051050Z VRB06KT CAVOK 27/11 Q1014 NOSIG
LIMC 051020Z VRB03KT CAVOK 27/09 Q1014 NOSIG
LIMC 050950Z 28005KT 210V340 CAVOK 26/09 Q1014 NOSIG
LIMC 050920Z VRB03KT CAVOK 26/07 Q1014 NOSIG
LIMC 050850Z VRB02KT CAVOK 26/07 Q1014 NOSIG
LIMC 050820Z VRB03KT CAVOK 26/08 Q1014 NOSIG
LIMC 050750Z VRB02KT CAVOK 25/09 Q1014 NOSIG
LIMC 050720Z VRB02KT CAVOK 23/09 Q1013 NOSIG
LIMC 050650Z 01005KT CAVOK 21/08 Q1013 NOSIG
LIMC 050620Z 01006KT CAVOK 20/09 Q1013 NOSIG
LIMC 050550Z 01007KT CAVOK 19/11 Q1013 NOSIG
LIMC 050520Z 01006KT CAVOK 16/10 Q1013 NOSIG
LIMC 050450Z VRB01KT CAVOK 16/08 Q1012 NOSIG
LIMC 050420Z 01005KT 350V060 CAVOK 14/07 Q1012 NOSIG
LIMC 050350Z 02005KT CAVOK 14/07 Q1012 NOSIG
LIMC 050320Z 35005KT CAVOK 16/06 Q1011 NOSIG
LIMC 050250Z 35004KT CAVOK 16/06 Q1011 NOSIG
LIMC 050220Z 11006KT CAVOK 17/05 Q1011 NOSIG
LIMC 050150Z 03004KT CAVOK 18/05 Q1011 NOSIG
LIMC 050120Z 04006KT CAVOK 17/05 Q1011 NOSIG
LIMC 050050Z 01005KT CAVOK 17/05 Q1011 NOSIG
LIMC 050020Z 34007KT CAVOK 19/04 Q1011 NOSIG
LIMC 042350Z 34006KT CAVOK 19/04 Q1011 NOSIG
LIMC 042320Z 36007KT CAVOK 19/04 Q1011 NOSIG
LIMC 042250Z 34006KT CAVOK 20/03 Q1011 NOSIG
LIMC 042220Z 03007KT CAVOK 20/03 Q1010 NOSIG
LIMC 042150Z 36005KT 330V030 CAVOK 21/03 Q1010 NOSIG
LIMC 042120Z 02008KT CAVOK 21/03 Q1010 NOSIG